• Join FlightAware (Why Join?)
  • Login
  • US Flag 
04:44PM EDT


 

Airport Tracker/Info


-or-


 

Live Flight TrackerFlight Track Log ✈ OPT332 ✈ 14-Sep-2013 ✈ CYYC - KOAK

Flight Track Log - Related Links

Times and Time Zones

All times are in EDT time to prevent confusion due to time zone crossing. See the OPT332 flight status page for this flight to view local times or setup timezone preferences in your user account.

Time Position Orientation Groundspeed Altitude Reporting Facility
EDT Latitude Longitude Course Direction KTS MPH feet Rate Location/Type
06:05PM 51.0167 -114.0500 163° South 200 230 6,600  Level Edmonton Center
06:06PM 50.9667 -114.0833 203° Southwest 240 276 9,900 3,300 Climbing Edmonton Center
06:07PM 50.8833 -114.1333 201° Southwest 280 322 13,300 3,120 Climbing Edmonton Center
06:08PM 50.8167 -114.1667 198° South 300 345 16,200 2,640 Climbing Edmonton Center
06:09PM 50.7333 -114.2000 194° South 300 345 18,600 2,400 Climbing Edmonton Center
06:10PM 50.5837 -114.4378 198° South  Level Estimated
06:10PM 50.6500 -114.2333 194° South 320 368 21,100  Level Edmonton Center
06:11PM 50.4893 -114.3926 163° South  Level FlightAware Approximate
06:11PM 50.5667 -114.3000 207° Southwest 320 368 23,200  Level Edmonton Center
06:12PM 50.4667 -114.3333 192° South 340 391 25,500 2,100 Climbing Edmonton Center
06:13PM 50.3833 -114.4000 207° Southwest 340 391 27,500 1,980 Climbing Edmonton Center
06:14PM 50.2833 -114.4333 192° South 350 403 29,500 2,160 Climbing Edmonton Center
06:15PM 50.2000 -114.4833 201° Southwest 360 414 31,900 2,400 Climbing Edmonton Center
06:16PM 50.1000 -114.5167 192° South 350 403 34,300 2,280 Climbing Edmonton Center
06:17PM 50.0000 -114.5833 203° Southwest 340 391 36,500 1,740 Climbing Edmonton Center
06:18PM 49.9333 -114.6167 198° South 330 380 37,800 1,320 Climbing Edmonton Center
06:19PM 49.8333 -114.6667 198° South 340 391 39,200 1,200 Climbing Edmonton Center
06:20PM 49.7333 -114.7000 192° South 340 391 40,300 1,020 Climbing Edmonton Center
06:21PM 49.6500 -114.7667 207° Southwest 350 403 41,300 900 Climbing Edmonton Center
06:22PM 49.5500 -114.8000 192° South 350 403 42,200 840 Climbing Edmonton Center
06:23PM 49.4500 -114.8500 198° South 350 403 43,000 660 Climbing Edmonton Center
06:24PM 49.3500 -114.8833 192° South 360 414 43,600 600 Climbing Edmonton Center
06:25PM 49.2667 -114.9167 195° South 370 426 44,200 480 Climbing Edmonton Center
06:26PM 49.1500 -114.9667 196° South 370 426 44,600 360 Climbing Edmonton Center
06:27PM 49.0500 -115.0167 198° South 380 437 45,000 180 Climbing Edmonton Center
06:28PM 48.9500 -115.0500 192° South 390 449 45,000  Level Edmonton Center
06:29PM 48.8500 -115.1333 209° Southwest 390 449 45,000  Level Edmonton Center
06:30PM 48.8028 -115.1492 192° South 398 458 45,000  Level Salt Lake Center
06:31PM 48.6767 -115.2222 201° Southwest 404 465 45,000  Level Salt Lake Center
06:32PM 48.5706 -115.2819 200° South 408 470 45,000  Level Salt Lake Center
06:33PM 48.4658 -115.3425 201° Southwest 407 468 45,000  Level Salt Lake Center
06:34PM 48.3592 -115.4028 201° Southwest 411 473 45,000  Level Salt Lake Center
06:35PM 48.2539 -115.4631 201° Southwest 409 471 45,000  Level Salt Lake Center
06:37PM 48.1483 -115.5217 200° South 408 470 45,000  Level Salt Lake Center
06:38PM 48.0436 -115.5811 201° Southwest 405 466 45,000  Level Salt Lake Center
06:39PM 47.9381 -115.6389 200° South 405 466 45,000  Level Salt Lake Center
06:40PM 47.8336 -115.6975 201° Southwest 405 466 45,000  Level Salt Lake Center
06:41PM 47.7078 -115.7667 200° South 405 466 45,000  Level Salt Lake Center
06:42PM 47.6031 -115.8247 200° South 404 465 45,000  Level Salt Lake Center
06:43PM 47.4983 -115.8828 201° Southwest 404 465 45,000  Level Salt Lake Center
06:44PM 47.3936 -115.9392 200° South 404 465 45,000  Level Salt Lake Center
06:45PM 47.2892 -115.9950 200° South 402 463 45,000  Level Salt Lake Center
06:46PM 47.1836 -116.0533 201° Southwest 402 463 45,000  Level Salt Lake Center
06:47PM 47.0806 -116.1094 200° South 402 463 45,000  Level Salt Lake Center
06:48PM 46.9739 -116.1661 200° South 405 466 45,000  Level Salt Lake Center
06:49PM 46.8683 -116.2233 200° South 405 466 45,000  Level Salt Lake Center
06:50PM 46.7633 -116.2792 200° South 404 465 45,000  Level Salt Lake Center
06:51PM 46.6364 -116.3464 200° South 404 465 45,000  Level Salt Lake Center
06:52PM 46.5111 -116.4119 200° South 402 463 45,000  Level Seattle Center
06:53PM 46.4044 -116.4664 199° South 405 466 45,000  Level Seattle Center
06:54PM 46.2978 -116.5228 200° South 407 468 45,000  Level Seattle Center
06:55PM 46.1917 -116.5792 200° South 407 468 45,000  Level Seattle Center
06:56PM 46.0856 -116.6333 199° South 405 466 45,000  Level Seattle Center
06:57PM 45.9794 -116.6897 200° South 407 468 45,000  Level Seattle Center
06:58PM 45.8728 -116.7428 199° South 407 468 45,000  Level Seattle Center
06:59PM 45.7658 -116.7978 200° South 407 468 45,000  Level Seattle Center
07:00PM 45.6589 -116.8542 200° South 411 473 45,000  Level Seattle Center
07:01PM 45.5544 -116.9069 199° South 406 467 45,000  Level Seattle Center
07:02PM 45.4456 -116.9639 200° South 410 472 45,000  Level Seattle Center
07:03PM 45.3383 -117.0186 200° South 412 474 45,000  Level Seattle Center
07:04PM 45.2117 -117.0797 199° South 405 466 45,000  Level Seattle Center
07:05PM 45.1047 -117.1333 199° South 406 467 45,000  Level Seattle Center
07:06PM 45.0186 -117.1753 199° South 411 473 45,000  Level Salt Lake Center
07:07PM 44.9108 -117.2297 200° South 413 475 45,000  Level Salt Lake Center
07:08PM 44.8031 -117.2814 199° South 412 474 45,000  Level Salt Lake Center
07:09PM 44.6956 -117.3350 200° South 412 474 45,000  Level Salt Lake Center
07:10PM 44.5886 -117.3872 199° South 411 473 45,000  Level Salt Lake Center
07:11PM 44.4578 -117.4506 199° South 414 476 45,000  Level Salt Lake Center
07:12PM 44.3489 -117.5028 199° South 416 479 45,000  Level Salt Lake Center
07:13PM 44.2411 -117.5542 199° South 413 475 45,000  Level Salt Lake Center
07:14PM 44.1344 -117.6064 199° South 409 471 45,000  Level Salt Lake Center
07:15PM 44.0269 -117.6575 199° South 410 472 45,000  Level Salt Lake Center
07:16PM 43.9211 -117.7086 199° South 404 465 45,000  Level Salt Lake Center
07:17PM 43.8147 -117.7592 199° South 406 467 45,000  Level Salt Lake Center
07:18PM 43.7081 -117.8100 199° South 407 468 45,000  Level Salt Lake Center
07:19PM 43.6008 -117.8597 199° South 407 468 45,000  Level Salt Lake Center
07:20PM 43.4950 -117.9103 199° South 404 465 45,000  Level Salt Lake Center
07:21PM 43.3664 -117.9703 199° South 408 470 45,000  Level Salt Lake Center
07:22PM 43.2600 -118.0206 199° South 405 466 45,000  Level Salt Lake Center
07:23PM 43.1525 -118.0700 199° South 407 468 45,000  Level Salt Lake Center
07:24PM 43.0456 -118.1197 199° South 407 468 45,000  Level Salt Lake Center
07:25PM 42.9386 -118.1694 199° South 406 467 45,000  Level Salt Lake Center
07:26PM 42.8433 -118.2164 200° South 407 468 45,000  Level Salt Lake Center
07:27PM 42.7367 -118.2633 198° South 403 464 45,000  Level Salt Lake Center
07:28PM 42.6089 -118.3228 199° South 405 466 45,000  Level Salt Lake Center
07:29PM 42.5011 -118.3733 199° South 408 470 45,000  Level Salt Lake Center
07:30PM 42.3961 -118.4183 198° South 405 466 45,000  Level Salt Lake Center
07:31PM 42.2936 -118.4647 199° South 406 467 45,000  Level Salt Lake Center
07:33PM 42.1747 -118.5189 199° South 406 467 45,000  Level Salt Lake Center
07:34PM 42.0883 -118.6047 216° Southwest 401 461 45,000  Level Salt Lake Center
07:35PM 41.9958 -118.7150 222° Southwest 399 459 45,000  Level Salt Lake Center
07:36PM 41.9153 -118.8119 222° Southwest 402 463 45,000  Level Salt Lake Center
07:37PM 41.8369 -118.9056 222° Southwest 400 460 45,000  Level Salt Lake Center
07:38PM 41.7436 -119.0164 222° Southwest 400 460 45,000  Level Salt Lake Center
07:39PM 41.6647 -119.1106 222° Southwest 399 459 45,000  Level Salt Lake Center
07:40PM 41.5847 -119.2053 222° Southwest 400 460 45,000  Level Salt Lake Center
07:41PM 41.4906 -119.3164 221° Southwest 403 464 45,000  Level Salt Lake Center
07:42PM 41.3694 -119.4578 221° Southwest 403 464 45,000  Level Salt Lake Center
07:43PM 41.2969 -119.5444 222° Southwest 403 464 45,000  Level Salt Lake Center
07:44PM 41.1961 -119.6608 221° Southwest 401 461 45,000  Level Salt Lake Center
07:45PM 41.1128 -119.7581 221° Southwest 401 461 45,000  Level Salt Lake Center
07:46PM 41.0294 -119.8547 221° Southwest 400 460 45,000  Level Salt Lake Center
07:47PM 40.9467 -119.9489 221° Southwest 396 456 45,000  Level Salt Lake Center
07:48PM 40.8642 -120.0439 221° Southwest 395 455 45,000  Level Salt Lake Center
07:49PM 40.7814 -120.1392 221° Southwest 395 455 45,000  Level Salt Lake Center
07:50PM 40.6997 -120.2322 221° Southwest 391 450 45,000  Level Salt Lake Center
07:51PM 40.6181 -120.3244 221° Southwest 390 449 45,000  Level Salt Lake Center
07:52PM 40.5375 -120.4175 221° Southwest 388 447 45,000  Level Salt Lake Center
07:53PM 40.4556 -120.5097 221° Southwest 389 448 45,000  Level Salt Lake Center
07:54PM 40.3542 -120.6228 220° Southwest 389 448 45,000  Level Seattle Center
07:55PM 40.2722 -120.7153 221° Southwest 387 445 45,000  Level Seattle Center
07:57PM 40.1908 -120.8053 220° Southwest 386 444 45,000  Level Seattle Center
07:58PM 40.1086 -120.8983 221° Southwest 390 449 45,000  Level Seattle Center
07:59PM 40.0247 -120.9897 220° Southwest 391 450 45,000  Level Seattle Center
08:00PM 39.9181 -121.1061 220° Southwest 390 449 45,000  Level Oakland Center
08:01PM 39.8247 -121.2089 220° Southwest 390 449 45,000  Level Oakland Center
08:02PM 39.7406 -121.3014 220° Southwest 392 451 45,000  Level Oakland Center
08:03PM 39.6575 -121.3925 220° Southwest 391 450 45,000 -420 Level Oakland Center
08:04PM 39.5742 -121.4825 220° Southwest 390 449 44,200 -1,500 Descending Oakland Center
08:05PM 39.4842 -121.5806 220° Southwest 397 457 42,000 -2,160 Descending Oakland Center
08:06PM 39.3997 -121.6728 220° Southwest 399 459 39,900 -2,100 Descending Oakland Center
08:07PM 39.3164 -121.7642 220° Southwest 395 455 37,800 -2,100 Descending Oakland Center
08:08PM 39.2328 -121.8547 220° Southwest 394 453 35,700 -2,100 Descending Oakland Center
08:09PM 39.1458 -121.9458 219° Southwest 401 461 33,600 -1,380 Descending Oakland Center
08:10PM 39.0606 -122.0375 220° Southwest 401 461 33,000 -1,020 Descending Oakland Center
08:11PM 38.9789 -122.1336 222° Southwest 400 460 31,600 -2,040 Descending Oakland Center
08:12PM 38.8836 -122.2461 223° Southwest 391 450 28,900 -2,460 Descending Oakland Center
08:13PM 38.8047 -122.3386 222° Southwest 388 447 26,700 -2,220 Descending Oakland Center
08:14PM 38.7258 -122.4286 222° Southwest 384 442 24,500 -2,340 Descending Oakland Center
08:15PM 38.6464 -122.5194 222° Southwest 378 435 22,000 -2,400 Descending Oakland Center
08:16PM 38.5714 -122.6050 222° Southwest 369 425 19,700 -2,220 Descending Oakland Center
08:17PM 38.4800 -122.6403 197° South 353 406 17,500 -2,220 Descending Oakland Center
08:18PM 38.3847 -122.6228 172° South 347 399 15,300 -2,160 Descending Oakland Center
08:19PM 38.2961 -122.6061 172° South 328 377 13,200 -1,620 Descending Oakland Center
08:25PM 37.9754 -122.4110 172° South 239 275 5,100 -1,140 Descending FlightAware ADS-B
08:26PM 37.9207 -122.2820 118° Southeast 226 260 5,100  Level FlightAware ADS-B
08:27PM 37.9040 -122.2480 122° Southeast 226 260 5,100  Level FlightAware ADS-B
08:27PM 37.8949 -122.2300 123° Southeast 226 260 5,100  Level FlightAware ADS-B
08:27PM 37.8864 -122.2120 121° Southeast 227 261 5,100  Level FlightAware ADS-B
08:29PM 37.8491 -122.1350 122° Southeast 225 259 5,100  Level FlightAware ADS-B
08:29PM 37.8390 -122.1150 123° Southeast 227 261 5,100  Level FlightAware ADS-B
08:29PM 37.8304 -122.0980 123° Southeast 227 261 5,100  Level FlightAware ADS-B
08:29PM 37.8216 -122.0800 122° Southeast 228 262 5,100  Level FlightAware ADS-B
08:30PM 37.8184 -122.0730 120° Southeast 231 266 5,100  Level FlightAware ADS-B
08:30PM 37.8161 -122.0690 126° Southeast 232 267 5,100  Level FlightAware ADS-B
08:30PM 37.8113 -122.0640 141° Southeast 229 264 5,100 -900 Level FlightAware ADS-B
08:31PM 37.7521 -122.0810 193° South 180 207 4,100 -960 Descending FlightAware ADS-B
08:31PM 37.7440 -122.0850 201° Southwest 168 193 3,900 -1,200 Descending FlightAware ADS-B
08:31PM 37.7345 -122.0890 198° South 155 178 3,600 -1,440 Descending FlightAware ADS-B
08:31PM 37.7263 -122.0920 196° South 150 173 3,300 -1,500 Descending FlightAware ADS-B
08:32PM 37.7185 -122.0950 197° South 145 167 3,000 -1,920 Descending FlightAware ADS-B
08:32PM 37.7155 -122.0960 195° South 144 166 2,800 -1,860 Descending FlightAware ADS-B
08:32PM 37.7105 -122.0990 205° Southwest 139 160 2,600 -1,260 Descending FlightAware ADS-B
08:33PM 37.7076 -122.1450 265° West 109 125 1,200 -1,080 Descending FlightAware ADS-B
08:34PM 37.7141 -122.1710 288° West 107 123 700 -780 Descending FlightAware ADS-B